Terminal Aerodrome Forecast
Issued by NWS

Current Version | Previous Version | Text Only | Print | Product List | Glossary On
Versions: 1 2 3 4 5 6 7 8 9 10 11 12 13 14 15 16
448
FTUS41 KPBZ 230539
TAFBVI
TAF
KBVI 230539Z 2306/2406 01007KT P6SM SCT035
     FM231300 06003KT P6SM SCT250
      AMD NOT SKED=

USA.gov is the U.S. government's official web portal to all federal, state and local government web resources and services.